Archival Weather

Aeroparque Jorge Newbery

Buenos Aires, Argentina (SABE)

Report from: Thursday, September 21, 2023 6:00 PM -03
Current time: Saturday, March 2, 2024 8:03 AM -03

Current weather – Weather history – Daily summaries
Weather forecast

Present weatherMist
Temperature18.0°C (64.4°F)
Dew point17.0°C (62.6°F)
Winds 2 kts (1 m/s, 2.3 mph) Vrb
Winds variableWinds variable
Visibility2.2 mi. (3.5 km)
Clouds Ceiling: Broken clouds 1,400 ft. (427 m)
Broken clouds 8,000 ft. (2,438 m)
Altimeter29.80 in.Hg (1009 mB)
Relative humidity94 %
Density altitude762 ft. (232 m)
Remarks Corrected report
No significant changes expected in the next two hours
Flight conditions Instrument Meteorological Conditions
Raw dataCOR SABE 212100Z VRB02KT 3500 BR BKN014 BKN080 18/17 Q1009 NOSIG RMK PP000
An error has occurred. This application may no longer respond until reloaded. Reload 🗙